createdAt,value
2018-09-16T00:00:46.489Z,13.65
2018-09-16T00:01:50.010Z,16.70
2018-09-16T00:02:53.468Z,13.40
2018-09-16T00:03:56.974Z,13.10
2018-09-16T00:05:00.571Z,10.80
2018-09-16T00:06:04.204Z,14.78
2018-09-16T00:07:07.863Z,13.05
2018-09-16T00:08:11.510Z,11.45
2018-09-16T00:09:16.067Z,14.33
2018-09-16T00:10:19.780Z,13.97
2018-09-16T00:11:23.343Z,13.62
2018-09-16T00:12:26.868Z,14.35
2018-09-16T00:13:31.031Z,15.35
2018-09-16T00:14:46.744Z,13.65
2018-09-16T00:15:50.661Z,13.60
2018-09-16T00:16:54.229Z,12.93
2018-09-16T00:17:58.041Z,14.35
2018-09-16T00:19:01.615Z,14.55
2018-09-16T00:20:05.568Z,13.93
2018-09-16T00:21:09.407Z,13.03
2018-09-16T00:22:12.960Z,14.15
2018-09-16T00:23:16.614Z,16.67
2018-09-16T00:24:20.349Z,12.60
2018-09-16T00:25:24.145Z,14.25
2018-09-16T00:26:27.824Z,13.53
2018-09-16T00:27:31.452Z,14.07
2018-09-16T00:28:35.038Z,15.83
2018-09-16T00:29:38.785Z,14.55
2018-09-16T00:30:42.401Z,15.08
2018-09-16T00:31:46.270Z,16.02
2018-09-16T00:32:50.292Z,14.45
2018-09-16T00:33:53.928Z,16.55
2018-09-16T00:34:57.614Z,17.62
2018-09-16T00:36:01.234Z,17.25
2018-09-16T00:37:04.997Z,14.90
2018-09-16T00:38:08.849Z,21.30
2018-09-16T00:39:12.654Z,18.57
2018-09-16T00:40:16.335Z,16.95
2018-09-16T00:41:19.963Z,18.20
2018-09-16T00:42:23.606Z,16.55
2018-09-16T00:43:27.434Z,15.75
2018-09-16T00:44:31.139Z,17.20
2018-09-16T00:45:35.091Z,15.43
2018-09-16T00:46:38.847Z,17.15
2018-09-16T00:47:42.575Z,17.60
2018-09-16T00:48:46.263Z,15.72
2018-09-16T00:49:49.959Z,14.18
2018-09-16T00:50:54.044Z,16.30
2018-09-16T00:51:57.884Z,17.30
2018-09-16T00:53:01.602Z,20.85
2018-09-16T00:54:05.261Z,22.55
2018-09-16T00:55:09.016Z,17.20
2018-09-16T00:56:13.286Z,18.10
2018-09-16T00:57:17.029Z,17.80
2018-09-16T00:58:21.035Z,29.05
2018-09-16T00:59:24.668Z,17.42
2018-09-16T01:00:28.598Z,16.05
2018-09-16T01:01:32.144Z,19.12
2018-09-16T01:02:36.574Z,20.30
2018-09-16T01:03:40.335Z,23.05
2018-09-16T01:04:43.994Z,18.23
2018-09-16T01:05:53.037Z,20.02
2018-09-16T01:06:56.570Z,17.07
2018-09-16T01:08:00.368Z,18.60
2018-09-16T01:09:08.281Z,19.20
2018-09-16T01:10:12.176Z,18.62
2018-09-16T01:11:15.870Z,21.87
2018-09-16T01:12:19.802Z,21.23
2018-09-16T01:13:23.500Z,19.13
2018-09-16T01:14:27.245Z,21.52
2018-09-16T01:15:31.266Z,24.45
2018-09-16T01:16:34.950Z,18.12
2018-09-16T01:17:39.035Z,23.40
2018-09-16T01:18:42.934Z,24.23
2018-09-16T01:19:47.841Z,21.17
2018-09-16T01:20:51.635Z,22.17
2018-09-16T01:21:55.398Z,22.17
2018-09-16T01:22:59.017Z,19.55
2018-09-16T01:24:02.645Z,21.13
2018-09-16T01:25:06.643Z,20.43
2018-09-16T01:26:10.472Z,18.90
2018-09-16T01:27:14.180Z,24.45
2018-09-16T01:28:17.873Z,19.60
2018-09-16T01:29:21.618Z,20.02
2018-09-16T01:30:25.274Z,19.90
2018-09-16T01:31:28.896Z,20.37
2018-09-16T01:32:32.461Z,21.97
2018-09-16T01:33:36.069Z,19.30
2018-09-16T01:34:39.613Z,22.77
2018-09-16T01:35:43.110Z,23.73
2018-09-16T01:36:46.641Z,23.73
2018-09-16T01:38:25.224Z,26.20
2018-09-16T01:39:28.935Z,21.25
2018-09-16T01:40:32.446Z,21.47
2018-09-16T01:41:36.232Z,21.40
2018-09-16T01:42:39.827Z,23.83
2018-09-16T01:43:43.354Z,22.40
2018-09-16T01:44:46.892Z,22.23
2018-09-16T01:45:50.526Z,23.67
2018-09-16T01:46:54.093Z,23.42
2018-09-16T01:47:57.598Z,23.23
2018-09-16T01:49:01.338Z,22.75
2018-09-16T01:50:04.917Z,23.15
2018-09-16T01:51:08.400Z,23.40
2018-09-16T01:52:12.475Z,21.53
2018-09-16T01:53:15.995Z,24.20
2018-09-16T01:54:19.626Z,22.57
2018-09-16T01:55:23.226Z,22.33
2018-09-16T01:56:26.733Z,26.57
2018-09-16T01:57:30.317Z,26.03
2018-09-16T01:58:33.918Z,23.90
2018-09-16T01:59:37.471Z,25.20
2018-09-16T02:00:40.999Z,23.53
2018-09-16T02:01:44.687Z,22.57
2018-09-16T02:02:48.195Z,25.00
2018-09-16T02:03:51.689Z,23.90
2018-09-16T02:04:55.341Z,24.13
2018-09-16T02:05:58.811Z,23.20
2018-09-16T02:07:02.298Z,21.37
2018-09-16T02:08:05.827Z,25.10
2018-09-16T02:09:09.736Z,23.20
2018-09-16T02:10:13.284Z,22.43
2018-09-16T02:11:16.852Z,27.03
2018-09-16T02:12:20.453Z,25.50
2018-09-16T02:13:23.947Z,27.20
2018-09-16T02:14:27.458Z,25.20
2018-09-16T02:15:30.971Z,24.33
2018-09-16T02:16:34.503Z,28.30
2018-09-16T02:17:38.018Z,26.70
2018-09-16T02:18:41.697Z,25.87
2018-09-16T02:19:45.212Z,26.17
2018-09-16T02:21:00.919Z,24.23
2018-09-16T02:22:04.656Z,28.13
2018-09-16T02:23:08.530Z,29.23
2018-09-16T02:24:12.173Z,23.67
2018-09-16T02:25:15.685Z,28.03
2018-09-16T02:26:20.169Z,23.60
2018-09-16T02:27:23.643Z,24.83
2018-09-16T02:28:27.147Z,23.40
2018-09-16T02:29:30.627Z,28.33
2018-09-16T02:30:34.289Z,23.37
2018-09-16T02:31:38.296Z,23.93
2018-09-16T02:32:43.045Z,25.20
2018-09-16T02:33:46.681Z,26.77
2018-09-16T02:34:50.164Z,22.40
2018-09-16T02:35:53.767Z,24.53
2018-09-16T02:36:57.645Z,24.80
2018-09-16T02:38:01.192Z,21.97
2018-09-16T02:39:07.003Z,24.40
2018-09-16T02:40:10.613Z,22.40
2018-09-16T02:41:14.236Z,22.83
2018-09-16T02:42:17.732Z,22.20
2018-09-16T02:43:21.451Z,24.13
2018-09-16T02:44:25.048Z,23.27
2018-09-16T02:45:30.510Z,20.77
2018-09-16T02:46:34.752Z,25.93
2018-09-16T02:47:38.261Z,21.57
2018-09-16T02:48:41.812Z,27.53
2018-09-16T02:49:45.237Z,24.47
2018-09-16T02:50:48.740Z,23.00
2018-09-16T02:51:52.462Z,25.17
2018-09-16T02:52:55.962Z,23.95
2018-09-16T02:53:59.965Z,26.47
2018-09-16T02:55:03.467Z,21.77
2018-09-16T02:56:07.085Z,23.57
2018-09-16T02:57:11.130Z,23.07
2018-09-16T02:58:14.623Z,22.60
2018-09-16T02:59:18.151Z,26.77
2018-09-16T03:00:21.900Z,26.70
2018-09-16T03:01:25.485Z,24.10
2018-09-16T03:02:28.958Z,27.97
2018-09-16T03:03:32.535Z,21.73
2018-09-16T03:04:36.112Z,25.73
2018-09-16T03:05:45.377Z,23.83
2018-09-16T03:06:48.985Z,22.70
2018-09-16T03:07:52.474Z,22.37
2018-09-16T03:08:56.018Z,24.67
2018-09-16T03:09:59.486Z,23.40
2018-09-16T03:11:03.078Z,24.30
2018-09-16T03:12:06.698Z,25.60
2018-09-16T03:13:10.189Z,23.50
2018-09-16T03:14:13.779Z,21.83
2018-09-16T03:15:17.901Z,23.73
2018-09-16T03:16:21.448Z,22.63
2018-09-16T03:17:24.960Z,23.27
2018-09-16T03:18:28.523Z,24.47
2018-09-16T03:19:32.298Z,24.45
2018-09-16T03:20:36.049Z,24.00
2018-09-16T03:21:39.662Z,22.47
2018-09-16T03:22:43.262Z,23.40
2018-09-16T03:23:47.227Z,24.70
2018-09-16T03:24:50.883Z,25.03
2018-09-16T03:25:54.636Z,24.20
2018-09-16T03:26:58.371Z,21.17
2018-09-16T03:28:01.993Z,25.57
2018-09-16T03:29:06.037Z,23.07
2018-09-16T03:30:10.173Z,28.47
2018-09-16T03:31:13.669Z,23.87
2018-09-16T03:32:17.286Z,22.03
2018-09-16T03:33:22.074Z,23.07
2018-09-16T03:34:25.686Z,25.37
2018-09-16T03:35:29.456Z,23.70
2018-09-16T03:36:32.923Z,26.93
2018-09-16T03:37:36.593Z,22.77
2018-09-16T03:38:40.214Z,24.80
2018-09-16T03:39:43.859Z,28.20
2018-09-16T03:40:47.838Z,22.33
2018-09-16T03:41:51.736Z,25.07
2018-09-16T03:42:55.284Z,34.47
2018-09-16T03:43:58.791Z,23.25
2018-09-16T03:45:02.380Z,31.47
2018-09-16T03:46:06.223Z,28.57
2018-09-16T03:47:10.322Z,26.90
2018-09-16T03:48:14.161Z,25.33
2018-09-16T03:49:17.672Z,27.60
2018-09-16T03:50:21.216Z,26.37
2018-09-16T03:51:25.218Z,24.27
2018-09-16T03:52:28.681Z,31.83
2018-09-16T03:53:32.274Z,24.00
2018-09-16T03:54:35.731Z,22.07
2018-09-16T03:55:39.258Z,26.67
2018-09-16T03:56:43.896Z,24.80
2018-09-16T03:57:47.513Z,25.93
2018-09-16T03:58:50.983Z,24.03
2018-09-16T03:59:54.583Z,23.67
2018-09-16T04:00:58.405Z,25.83
2018-09-16T04:02:02.150Z,27.20
2018-09-16T04:03:05.781Z,27.20
2018-09-16T04:04:09.346Z,25.40
2018-09-16T04:05:12.962Z,23.87
2018-09-16T04:06:16.937Z,24.43
2018-09-16T04:07:20.495Z,24.65
2018-09-16T04:08:24.020Z,25.33
2018-09-16T04:09:27.710Z,23.77
2018-09-16T04:10:31.193Z,24.37
2018-09-16T04:11:34.658Z,23.93
2018-09-16T04:12:38.329Z,25.97
2018-09-16T04:13:41.883Z,26.40
2018-09-16T04:14:46.724Z,25.73
2018-09-16T04:15:51.237Z,27.27
2018-09-16T04:16:54.873Z,25.43
2018-09-16T04:17:58.335Z,25.03
2018-09-16T04:19:02.125Z,29.03
2018-09-16T04:20:06.186Z,28.10
2018-09-16T04:21:09.746Z,25.37
2018-09-16T04:22:13.162Z,29.37
2018-09-16T04:23:16.628Z,25.73
2018-09-16T04:24:20.128Z,26.70
2018-09-16T04:25:23.944Z,26.63
2018-09-16T04:26:27.424Z,28.07
2018-09-16T04:27:32.053Z,27.67
2018-09-16T04:28:35.683Z,25.50
2018-09-16T04:29:39.188Z,25.97
2018-09-16T04:30:42.828Z,27.10
2018-09-16T04:31:46.505Z,29.93
2018-09-16T04:32:51.369Z,27.20
2018-09-16T04:33:54.982Z,32.03
2018-09-16T04:34:59.053Z,33.37
2018-09-16T04:36:02.814Z,30.50
2018-09-16T04:37:06.519Z,28.33
2018-09-16T04:38:10.502Z,32.20
2018-09-16T04:39:14.952Z,27.73
2018-09-16T04:40:18.433Z,30.73
2018-09-16T04:41:22.516Z,31.00
2018-09-16T04:42:25.966Z,30.20
2018-09-16T04:43:30.030Z,32.07
2018-09-16T04:44:33.494Z,29.70
2018-09-16T04:45:37.031Z,30.63
2018-09-16T04:46:40.645Z,29.30
2018-09-16T04:47:44.836Z,32.03
2018-09-16T04:48:48.402Z,26.47
2018-09-16T04:49:52.106Z,30.10
2018-09-16T04:50:55.777Z,27.80
2018-09-16T04:51:59.272Z,27.73
2018-09-16T04:53:02.727Z,27.90
2018-09-16T04:54:06.308Z,27.77
2018-09-16T04:55:10.436Z,28.03
2018-09-16T04:56:14.075Z,26.67
2018-09-16T04:57:17.689Z,26.47
2018-09-16T04:58:22.007Z,27.87
2018-09-16T04:59:26.047Z,32.00
2018-09-16T05:00:29.596Z,27.87
2018-09-16T05:01:33.244Z,26.43
2018-09-16T05:02:37.268Z,29.33
2018-09-16T05:03:40.912Z,31.87
2018-09-16T05:04:44.795Z,28.90
2018-09-16T05:05:48.796Z,30.63
2018-09-16T05:06:52.885Z,28.63
2018-09-16T05:07:56.331Z,26.50
2018-09-16T05:09:01.089Z,30.47
2018-09-16T05:10:04.711Z,28.30
2018-09-16T05:11:08.479Z,25.77
2018-09-16T05:12:12.444Z,27.03
2018-09-16T05:13:16.567Z,26.80
2018-09-16T05:14:20.183Z,30.87
2018-09-16T05:15:24.033Z,25.37
2018-09-16T05:16:28.058Z,26.73
2018-09-16T05:17:31.701Z,26.87
2018-09-16T05:18:35.308Z,29.67
2018-09-16T05:19:39.851Z,31.37
2018-09-16T05:20:43.388Z,34.43
2018-09-16T05:21:46.875Z,34.63
2018-09-16T05:22:50.393Z,31.97
2018-09-16T05:23:54.597Z,30.40
2018-09-16T05:24:58.046Z,32.23
2018-09-16T05:26:01.565Z,27.63
2018-09-16T05:27:05.084Z,32.10
2018-09-16T05:28:09.593Z,30.73
2018-09-16T05:29:13.170Z,25.27
2018-09-16T05:30:17.139Z,28.53
2018-09-16T05:31:20.707Z,30.37
2018-09-16T05:32:24.218Z,25.00
2018-09-16T05:33:27.864Z,28.47
2018-09-16T05:34:31.416Z,29.63
2018-09-16T05:35:35.203Z,30.10
2018-09-16T05:36:39.200Z,31.20
2018-09-16T05:37:42.826Z,29.87
2018-09-16T05:38:46.719Z,26.37
2018-09-16T05:39:50.716Z,27.20
2018-09-16T05:40:54.293Z,31.57
2018-09-16T05:41:57.828Z,30.80
2018-09-16T05:43:01.580Z,30.07
2018-09-16T05:44:05.617Z,29.63
2018-09-16T05:45:09.860Z,27.32
2018-09-16T05:46:13.651Z,24.92
2018-09-16T05:47:17.173Z,20.48
2018-09-16T05:48:20.771Z,23.52
2018-09-16T05:49:24.604Z,18.30
2018-09-16T05:50:28.189Z,19.67
2018-09-16T05:51:32.271Z,17.07
2018-09-16T05:52:35.944Z,17.37
2018-09-16T05:53:39.510Z,13.65
2018-09-16T05:54:44.450Z,14.28
2018-09-16T05:55:48.000Z,15.15
2018-09-16T05:56:51.529Z,16.67
2018-09-16T05:57:55.029Z,14.10
2018-09-16T05:58:59.109Z,12.05
2018-09-16T06:00:02.610Z,12.35
2018-09-16T06:01:06.555Z,13.00
2018-09-16T06:02:10.351Z,12.23
2018-09-16T06:03:14.407Z,12.80
2018-09-16T06:04:18.696Z,10.32
2018-09-16T06:05:22.451Z,10.95
2018-09-16T06:06:27.550Z,10.28
2018-09-16T06:07:31.218Z,11.75
2018-09-16T06:08:35.401Z,11.68
2018-09-16T06:09:40.514Z,10.48
2018-09-16T06:10:44.031Z,11.55
2018-09-16T06:11:47.788Z,9.23
2018-09-16T06:12:51.869Z,11.12
2018-09-16T06:13:56.422Z,8.70
2018-09-16T06:15:00.019Z,8.90
2018-09-16T06:16:03.681Z,8.30
2018-09-16T06:17:08.095Z,10.68
2018-09-16T06:18:12.444Z,8.00
2018-09-16T06:19:16.004Z,8.48
2018-09-16T06:20:19.586Z,13.22
2018-09-16T06:21:23.824Z,8.40
2018-09-16T06:22:27.584Z,9.53
2018-09-16T06:23:31.831Z,8.90
2018-09-16T06:24:35.369Z,10.20
2018-09-16T06:25:39.252Z,8.58
2018-09-16T06:26:42.837Z,8.88
2018-09-16T06:27:46.323Z,9.48
2018-09-16T06:28:50.100Z,7.78
2018-09-16T06:29:54.135Z,10.10
2018-09-16T06:30:57.862Z,9.13
2018-09-16T06:32:01.474Z,9.33
2018-09-16T06:33:05.696Z,8.50
2018-09-16T06:34:09.336Z,8.05
2018-09-16T06:35:13.569Z,8.55
2018-09-16T06:36:17.826Z,9.13
2018-09-16T06:37:21.743Z,8.95
2018-09-16T06:38:25.269Z,8.05
2018-09-16T06:39:28.941Z,8.05
2018-09-16T06:40:32.491Z,9.93
2018-09-16T06:41:36.335Z,8.95
2018-09-16T06:42:39.948Z,7.70
2018-09-16T06:43:44.664Z,10.05
2018-09-16T06:44:48.197Z,7.60
2018-09-16T06:45:51.741Z,7.75
2018-09-16T06:46:55.294Z,11.50
2018-09-16T06:47:59.055Z,8.58
2018-09-16T06:49:03.206Z,8.50
2018-09-16T06:50:06.885Z,9.70
2018-09-16T06:51:10.521Z,8.58
2018-09-16T06:52:15.016Z,11.22
2018-09-16T06:53:18.711Z,11.28
2018-09-16T06:54:22.218Z,8.15
2018-09-16T06:55:26.533Z,7.55
2018-09-16T06:56:30.309Z,8.53
2018-09-16T06:57:34.150Z,9.13
2018-09-16T06:58:37.715Z,7.60
2018-09-16T06:59:41.328Z,8.20
2018-09-16T07:00:45.085Z,7.37
2018-09-16T07:01:48.551Z,7.08
2018-09-16T07:02:52.210Z,8.33
2018-09-16T07:03:57.102Z,6.70
2018-09-16T07:05:00.735Z,7.20
2018-09-16T07:06:04.287Z,6.87
2018-09-16T07:07:08.507Z,7.97
2018-09-16T07:08:12.542Z,7.10
2018-09-16T07:09:16.242Z,7.28
2018-09-16T07:10:20.340Z,7.40
2018-09-16T07:11:24.178Z,7.20
2018-09-16T07:12:27.984Z,10.13
2018-09-16T07:13:32.621Z,8.88
2018-09-16T07:14:36.635Z,6.80
2018-09-16T07:15:40.184Z,9.78
2018-09-16T07:16:43.943Z,6.47
2018-09-16T07:17:48.319Z,7.42
2018-09-16T07:18:52.619Z,9.18
2018-09-16T07:19:56.336Z,6.78
2018-09-16T07:21:00.502Z,7.37
2018-09-16T07:22:05.230Z,6.97
2018-09-16T07:23:10.047Z,6.83
2018-09-16T07:24:13.825Z,7.55
2018-09-16T07:25:18.264Z,6.15
2018-09-16T07:26:21.832Z,7.87
2018-09-16T07:27:25.546Z,6.72
2018-09-16T07:28:29.323Z,5.97
2018-09-16T07:29:33.088Z,6.92
2018-09-16T07:30:38.492Z,6.42
2018-09-16T07:31:42.153Z,7.30
2018-09-16T07:32:46.560Z,6.90
2018-09-16T07:33:50.896Z,8.55
2018-09-16T07:34:54.507Z,9.20
2018-09-16T07:35:58.123Z,8.63
2018-09-16T07:37:01.762Z,8.98
2018-09-16T07:38:05.503Z,6.33
2018-09-16T07:39:10.282Z,6.62
2018-09-16T07:40:14.463Z,6.50
2018-09-16T07:41:18.667Z,5.17
2018-09-16T07:42:22.447Z,6.22
2018-09-16T07:43:26.099Z,5.33
2018-09-16T07:44:29.627Z,6.58
2018-09-16T07:45:33.598Z,7.75
2018-09-16T07:46:37.098Z,8.35
2018-09-16T07:47:40.654Z,6.30
2018-09-16T07:48:44.245Z,7.15
2018-09-16T07:49:48.009Z,7.42
2018-09-16T07:50:51.609Z,6.37
2018-09-16T07:51:55.558Z,5.55
2018-09-16T07:52:59.305Z,7.67
2018-09-16T07:54:02.794Z,6.58
2018-09-16T07:55:06.977Z,5.65
2018-09-16T07:56:10.652Z,6.60
2018-09-16T07:57:14.421Z,8.28
2018-09-16T07:58:18.138Z,6.65
2018-09-16T07:59:23.494Z,6.25
2018-09-16T08:00:28.104Z,5.65
2018-09-16T08:01:32.064Z,6.53
2018-09-16T08:02:35.834Z,6.60
2018-09-16T08:03:39.561Z,6.70
2018-09-16T08:04:43.266Z,6.00
2018-09-16T08:05:51.301Z,6.05
2018-09-16T08:06:54.862Z,5.58
2018-09-16T08:07:58.550Z,7.05
2018-09-16T08:09:02.354Z,6.95
2018-09-16T08:10:06.133Z,5.45
2018-09-16T08:11:10.042Z,7.30
2018-09-16T08:12:14.171Z,7.25
2018-09-16T08:13:17.937Z,4.87
2018-09-16T08:14:21.626Z,6.17
2018-09-16T08:15:25.517Z,5.90
2018-09-16T08:16:29.592Z,7.20
2018-09-16T08:17:33.407Z,5.33
2018-09-16T08:18:37.186Z,6.87
2018-09-16T08:19:40.897Z,6.03
2018-09-16T08:20:44.618Z,7.60
2018-09-16T08:21:48.526Z,5.33
2018-09-16T08:22:52.703Z,5.35
2018-09-16T08:23:57.098Z,6.08
2018-09-16T08:25:00.705Z,6.67
2018-09-16T08:26:04.405Z,6.22
2018-09-16T08:27:08.564Z,6.12
2018-09-16T08:28:12.701Z,5.33
2018-09-16T08:29:17.420Z,5.20
2018-09-16T08:30:22.187Z,4.35
2018-09-16T08:31:25.843Z,4.20
2018-09-16T08:32:29.386Z,6.60
2018-09-16T08:33:33.104Z,4.35
2018-09-16T08:34:36.809Z,5.20
2018-09-16T08:35:40.453Z,5.83
2018-09-16T08:36:43.983Z,5.55
2018-09-16T08:37:47.709Z,4.65
2018-09-16T08:38:51.321Z,7.37
2018-09-16T08:39:55.615Z,6.95
2018-09-16T08:40:59.224Z,6.47
2018-09-16T08:42:02.804Z,5.05
2018-09-16T08:43:06.347Z,6.08
2018-09-16T08:44:10.076Z,4.03
2018-09-16T08:45:13.837Z,4.47
2018-09-16T08:46:17.817Z,5.60
2018-09-16T08:47:22.170Z,4.78
2018-09-16T08:48:25.758Z,4.62
2018-09-16T08:49:29.505Z,4.17
2018-09-16T08:50:33.194Z,2.90
2018-09-16T08:51:37.847Z,3.87
2018-09-16T08:52:41.436Z,4.10
2018-09-16T08:53:46.183Z,5.55
2018-09-16T08:54:49.735Z,3.77
2018-09-16T08:55:54.273Z,3.65
2018-09-16T08:56:58.779Z,4.75
2018-09-16T08:58:03.047Z,4.22
2018-09-16T08:59:08.380Z,4.35
2018-09-16T09:00:13.621Z,5.65
2018-09-16T09:01:17.804Z,4.17
2018-09-16T09:02:21.521Z,4.92
2018-09-16T09:03:25.543Z,3.00
2018-09-16T09:04:29.976Z,2.90
2018-09-16T09:05:34.426Z,4.17
2018-09-16T09:06:38.020Z,5.10
2018-09-16T09:07:41.730Z,5.00
2018-09-16T09:08:45.449Z,6.67
2018-09-16T09:09:48.966Z,5.22
2018-09-16T09:10:52.553Z,2.33
2018-09-16T09:11:56.749Z,2.98
2018-09-16T09:13:01.645Z,6.62
2018-09-16T09:14:05.325Z,3.60
2018-09-16T09:15:10.950Z,3.67
2018-09-16T09:16:15.137Z,6.08
2018-09-16T09:17:19.001Z,3.12
2018-09-16T09:18:22.615Z,5.28
2018-09-16T09:19:26.783Z,3.87
2018-09-16T09:20:31.244Z,2.60
2018-09-16T09:21:35.416Z,5.50
2018-09-16T09:22:39.791Z,4.00
2018-09-16T09:23:44.738Z,4.08
2018-09-16T09:24:48.585Z,4.70
2018-09-16T09:25:53.005Z,3.25
2018-09-16T09:26:56.818Z,3.40
2018-09-16T09:28:00.506Z,2.67
2018-09-16T09:29:05.058Z,4.50
2018-09-16T09:30:08.697Z,4.75
2018-09-16T09:31:12.704Z,5.25
2018-09-16T09:32:17.192Z,5.92
2018-09-16T09:33:20.746Z,5.87
2018-09-16T09:34:24.378Z,3.62
2018-09-16T09:35:28.120Z,2.95
2018-09-16T09:36:31.851Z,3.22
2018-09-16T09:37:35.645Z,4.85
2018-09-16T09:38:39.442Z,4.85
2018-09-16T09:39:43.331Z,4.22
2018-09-16T09:40:46.999Z,2.00
2018-09-16T09:41:51.211Z,5.17
2018-09-16T09:42:55.247Z,3.12
2018-09-16T09:43:59.113Z,2.60
2018-09-16T09:45:02.789Z,3.02
2018-09-16T09:46:06.451Z,8.60
2018-09-16T09:47:10.515Z,4.85
2018-09-16T09:48:15.334Z,3.70
2018-09-16T09:49:19.105Z,3.50
2018-09-16T09:50:22.721Z,3.52
2018-09-16T09:51:26.504Z,3.90
2018-09-16T09:52:30.296Z,5.67
2018-09-16T09:53:54.638Z,4.37
2018-09-16T09:55:13.413Z,3.62
2018-09-16T09:56:17.248Z,2.58
2018-09-16T09:57:22.931Z,2.45
2018-09-16T09:58:26.704Z,2.98
2018-09-16T09:59:31.032Z,1.55
2018-09-16T10:00:43.276Z,3.10
2018-09-16T10:01:47.472Z,5.10
2018-09-16T10:02:51.096Z,1.75
2018-09-16T10:03:54.839Z,3.08
2018-09-16T10:04:58.478Z,3.70
2018-09-16T10:06:02.242Z,2.62
2018-09-16T10:07:06.001Z,2.72
2018-09-16T10:08:10.579Z,4.08
2018-09-16T10:09:14.458Z,2.50
2018-09-16T10:10:18.207Z,3.12
2018-09-16T10:11:21.911Z,4.12
2018-09-16T10:12:25.841Z,3.15
2018-09-16T10:13:29.856Z,2.75
2018-09-16T10:14:33.736Z,4.97
2018-09-16T10:15:37.374Z,3.52
2018-09-16T10:16:41.962Z,3.50
2018-09-16T10:17:45.496Z,3.40
2018-09-16T10:18:49.365Z,2.83
2018-09-16T10:19:53.153Z,6.03
2018-09-16T10:20:56.713Z,5.15
2018-09-16T10:22:00.692Z,3.95
2018-09-16T10:23:05.346Z,3.60
2018-09-16T10:24:09.447Z,1.40
2018-09-16T10:25:14.350Z,4.05
2018-09-16T10:26:18.188Z,5.08
2018-09-16T10:27:21.977Z,3.70
2018-09-16T10:28:26.158Z,3.15
2018-09-16T10:29:30.225Z,4.47
2018-09-16T10:30:34.882Z,4.45
2018-09-16T10:31:39.195Z,2.83
2018-09-16T10:32:42.720Z,3.42
2018-09-16T10:33:47.153Z,2.87
2018-09-16T10:34:51.451Z,3.72
2018-09-16T10:35:55.354Z,2.62
2018-09-16T10:36:58.984Z,3.15
2018-09-16T10:38:02.781Z,3.98
2018-09-16T10:39:09.134Z,2.50
2018-09-16T10:40:13.258Z,3.95
2018-09-16T10:41:17.973Z,4.53
2018-09-16T10:42:21.748Z,2.47
2018-09-16T10:43:25.427Z,4.10
2018-09-16T10:44:29.323Z,1.70
2018-09-16T10:45:33.455Z,2.15
2018-09-16T10:46:36.983Z,4.70
2018-09-16T10:47:40.602Z,3.45
2018-09-16T10:48:44.294Z,3.83
2018-09-16T10:49:47.973Z,2.95
2018-09-16T10:50:52.254Z,3.33
2018-09-16T10:51:56.021Z,4.17
2018-09-16T10:52:59.982Z,4.25
2018-09-16T10:54:04.493Z,3.08
2018-09-16T10:55:08.227Z,4.00
2018-09-16T10:56:12.322Z,1.45
2018-09-16T10:57:16.276Z,3.42
2018-09-16T10:58:20.807Z,3.77
2018-09-16T10:59:24.696Z,3.12
2018-09-16T11:00:29.157Z,4.75
2018-09-16T11:01:32.995Z,3.83
2018-09-16T11:02:36.783Z,3.52
2018-09-16T11:03:40.714Z,2.65
2018-09-16T11:04:45.626Z,4.90
2018-09-16T11:05:49.610Z,3.15
2018-09-16T11:06:53.245Z,2.65
2018-09-16T11:07:56.999Z,2.40
2018-09-16T11:09:00.883Z,4.47
2018-09-16T11:10:04.735Z,4.17
2018-09-16T11:11:08.365Z,1.95
2018-09-16T11:12:12.493Z,2.35
2018-09-16T11:13:16.226Z,3.98
2018-09-16T11:14:20.039Z,3.40
2018-09-16T11:15:25.232Z,3.70
2018-09-16T11:16:29.463Z,1.60
2018-09-16T11:17:33.518Z,2.50
2018-09-16T11:18:37.085Z,3.15
2018-09-16T11:19:40.789Z,2.37
2018-09-16T11:20:44.570Z,2.12
2018-09-16T11:21:48.226Z,3.85
2018-09-16T11:22:51.847Z,3.12
2018-09-16T11:23:55.808Z,3.85
2018-09-16T11:25:00.484Z,3.72
2018-09-16T11:26:04.788Z,2.90
2018-09-16T11:27:09.408Z,1.90
2018-09-16T11:28:13.890Z,3.27
2018-09-16T11:29:17.641Z,2.65
2018-09-16T11:30:21.286Z,1.15
2018-09-16T11:31:25.057Z,1.80
2018-09-16T11:32:29.655Z,2.40
2018-09-16T11:33:34.731Z,2.02
2018-09-16T11:34:38.465Z,2.42
2018-09-16T11:35:42.858Z,1.98
2018-09-16T11:36:47.186Z,3.35
2018-09-16T11:37:50.956Z,4.47
2018-09-16T11:38:54.792Z,3.15
2018-09-16T11:39:59.153Z,2.77
2018-09-16T11:41:02.807Z,2.72
2018-09-16T11:42:06.633Z,2.45
2018-09-16T11:43:10.348Z,1.95
2018-09-16T11:44:15.501Z,4.25
2018-09-16T11:45:19.119Z,2.70
2018-09-16T11:46:22.847Z,3.98
2018-09-16T11:47:26.731Z,1.47
2018-09-16T11:48:31.065Z,3.58
2018-09-16T11:49:34.959Z,1.32
2018-09-16T11:50:39.635Z,3.15
2018-09-16T11:51:44.303Z,1.22
2018-09-16T11:52:47.964Z,1.22
2018-09-16T11:53:51.681Z,2.87
2018-09-16T11:54:55.751Z,4.90
2018-09-16T11:55:59.638Z,3.85
2018-09-16T11:57:04.502Z,2.60
2018-09-16T11:58:09.376Z,3.62
2018-09-16T11:59:15.007Z,1.60
2018-09-16T12:00:18.795Z,4.40
2018-09-16T12:01:22.406Z,1.52
2018-09-16T12:02:26.728Z,6.37
2018-09-16T12:03:30.418Z,2.90
2018-09-16T12:04:34.094Z,1.55
2018-09-16T12:05:38.439Z,2.55
2018-09-16T12:06:42.159Z,2.35
2018-09-16T12:07:45.671Z,2.20
2018-09-16T12:08:49.311Z,2.08
2018-09-16T12:09:53.489Z,1.72
2018-09-16T12:10:57.184Z,2.50
2018-09-16T12:12:00.815Z,6.67
2018-09-16T12:13:04.367Z,4.87
2018-09-16T12:14:09.270Z,2.05
2018-09-16T12:15:13.213Z,5.25
2018-09-16T12:16:17.644Z,1.85
2018-09-16T12:17:21.169Z,2.67
2018-09-16T12:18:24.908Z,5.22
2018-09-16T12:19:28.557Z,1.50
2018-09-16T12:20:32.935Z,1.77
2018-09-16T12:21:36.601Z,2.67
2018-09-16T12:22:40.228Z,2.83
2018-09-16T12:23:43.874Z,2.05
2018-09-16T12:24:48.247Z,1.80
2018-09-16T12:25:52.809Z,2.60
2018-09-16T12:26:56.633Z,1.87
2018-09-16T12:28:00.937Z,2.33
2018-09-16T12:29:04.721Z,3.83
2018-09-16T12:30:08.274Z,2.02
2018-09-16T12:31:12.127Z,2.12
2018-09-16T12:32:15.914Z,3.60
2018-09-16T12:33:19.912Z,2.00
2018-09-16T12:34:23.567Z,2.20
2018-09-16T12:35:27.158Z,2.62
2018-09-16T12:36:30.884Z,3.83
2018-09-16T12:37:34.902Z,1.37
2018-09-16T12:38:38.529Z,1.82
2018-09-16T12:39:42.101Z,2.75
2018-09-16T12:40:45.658Z,5.25
2018-09-16T12:41:49.942Z,2.60
2018-09-16T12:42:53.538Z,3.40
2018-09-16T12:43:57.179Z,3.75
2018-09-16T12:45:00.699Z,2.00
2018-09-16T12:46:04.586Z,1.40
2018-09-16T12:47:08.991Z,4.10
2018-09-16T12:48:13.125Z,5.17
2018-09-16T12:49:16.857Z,2.90
2018-09-16T12:50:20.528Z,3.50
2018-09-16T12:51:24.851Z,1.75
2018-09-16T12:52:28.665Z,1.50
2018-09-16T12:53:32.430Z,2.52
2018-09-16T12:54:36.873Z,2.67
2018-09-16T12:55:41.419Z,2.10
2018-09-16T12:56:45.033Z,2.12
2018-09-16T12:57:48.569Z,1.67
2018-09-16T12:58:52.520Z,1.42
2018-09-16T12:59:56.622Z,2.77
2018-09-16T13:01:00.332Z,1.70
2018-09-16T13:02:03.971Z,2.33
2018-09-16T13:03:08.176Z,2.45
2018-09-16T13:04:12.640Z,2.27
2018-09-16T13:05:17.077Z,2.10
2018-09-16T13:06:20.738Z,2.92
2018-09-16T13:07:24.449Z,3.75
2018-09-16T13:08:28.710Z,1.27
2018-09-16T13:09:33.220Z,4.10
2018-09-16T13:10:37.592Z,1.80
2018-09-16T13:11:41.330Z,1.72
2018-09-16T13:12:45.020Z,3.92
2018-09-16T13:13:48.634Z,2.47
2018-09-16T13:14:52.415Z,2.02
2018-09-16T13:15:56.064Z,1.72
2018-09-16T13:16:59.743Z,1.62
2018-09-16T13:18:04.482Z,1.85
2018-09-16T13:19:08.972Z,3.72
2018-09-16T13:20:13.867Z,1.22
2018-09-16T13:21:17.521Z,2.40
2018-09-16T13:22:21.832Z,1.92
2018-09-16T13:23:26.127Z,3.52
2018-09-16T13:24:31.190Z,1.85
2018-09-16T13:25:36.413Z,2.58
2018-09-16T13:26:40.874Z,1.45
2018-09-16T13:27:44.850Z,2.95
2018-09-16T13:28:48.797Z,2.92
2018-09-16T13:29:52.293Z,1.17
2018-09-16T13:30:55.994Z,2.72
2018-09-16T13:31:59.641Z,2.52
2018-09-16T13:33:03.342Z,2.40
2018-09-16T13:34:07.048Z,2.33
2018-09-16T13:35:11.627Z,2.42
2018-09-16T13:36:15.493Z,3.87
2018-09-16T13:37:19.086Z,1.22
2018-09-16T13:38:22.853Z,3.15
2018-09-16T13:39:26.476Z,1.90
2018-09-16T13:40:30.664Z,1.70
2018-09-16T13:41:34.466Z,3.72
2018-09-16T13:42:38.244Z,1.52
2018-09-16T13:43:43.062Z,2.95
2018-09-16T13:44:47.512Z,2.15
2018-09-16T13:45:51.493Z,2.60
2018-09-16T13:46:55.041Z,1.40
2018-09-16T13:47:58.787Z,3.00
2018-09-16T13:49:03.467Z,2.05
2018-09-16T13:50:08.790Z,2.10
2018-09-16T13:51:12.667Z,1.20
2018-09-16T13:52:16.943Z,1.72
2018-09-16T13:53:20.565Z,1.52
2018-09-16T13:54:24.227Z,2.58
2018-09-16T13:55:27.959Z,1.60
2018-09-16T13:56:31.509Z,2.40
2018-09-16T13:57:36.957Z,2.87
2018-09-16T13:58:40.560Z,2.12
2018-09-16T13:59:44.409Z,6.87